createdAt,value
2023-11-30T00:02:53.099Z,99915.81
2023-11-30T00:06:58.074Z,99913.78
2023-11-30T00:11:02.783Z,99909.88
2023-11-30T00:15:11.588Z,99905.78
2023-11-30T00:19:16.330Z,99915.44
2023-11-30T00:23:21.080Z,99909.91
2023-11-30T00:27:25.798Z,99903.50
2023-11-30T00:31:33.234Z,99916.69
2023-11-30T00:35:37.973Z,99916.50
2023-11-30T00:39:42.847Z,99913.84
2023-11-30T00:43:47.602Z,99906.63
2023-11-30T00:47:54.965Z,99919.81
2023-11-30T00:51:59.735Z,99915.69
2023-11-30T00:56:04.856Z,99912.81
2023-11-30T01:00:11.941Z,99914.03
2023-11-30T01:04:19.334Z,99904.81
2023-11-30T01:08:24.114Z,99900.03
2023-11-30T01:12:29.378Z,99911.38
2023-11-30T01:16:34.654Z,99907.06
2023-11-30T01:20:42.002Z,99906.28
2023-11-30T01:24:46.727Z,99900.72
2023-11-30T01:28:51.503Z,99894.94
2023-11-30T01:32:56.300Z,99895.16
2023-11-30T01:37:03.696Z,99891.66
2023-11-30T01:41:11.773Z,99887.72
2023-11-30T01:45:16.561Z,99894.50
2023-11-30T01:49:21.433Z,99882.94
2023-11-30T01:53:29.022Z,99886.25
2023-11-30T01:57:34.285Z,99877.97
2023-11-30T02:01:39.587Z,99876.34
2023-11-30T02:05:44.720Z,99872.22
2023-11-30T02:09:52.299Z,99885.22
2023-11-30T02:13:58.048Z,99868.13
2023-11-30T02:18:02.851Z,99868.94
2023-11-30T02:22:10.477Z,99856.41
2023-11-30T02:26:15.326Z,99860.34
2023-11-30T02:30:20.158Z,99851.06
2023-11-30T02:34:25.055Z,99839.53
2023-11-30T02:38:33.801Z,99847.13
2023-11-30T02:42:38.552Z,99848.97
2023-11-30T02:46:43.342Z,99858.66
2023-11-30T02:50:48.104Z,99840.94
2023-11-30T02:54:55.537Z,99840.94
2023-11-30T02:59:00.296Z,99845.69
2023-11-30T03:03:05.050Z,99841.75
2023-11-30T03:07:09.765Z,99837.03
2023-11-30T03:11:17.126Z,99838.84
2023-11-30T03:15:23.534Z,99829.56
2023-11-30T03:19:28.383Z,99830.81
2023-11-30T03:23:33.122Z,99837.00
2023-11-30T03:27:40.438Z,99826.28
2023-11-30T03:31:45.298Z,99826.69
2023-11-30T03:35:51.976Z,99827.13
2023-11-30T03:39:56.964Z,99823.41
2023-11-30T03:44:04.342Z,99819.09
2023-11-30T03:48:09.493Z,99828.53
2023-11-30T03:52:14.242Z,99825.66
2023-11-30T03:56:19.091Z,99826.94
2023-11-30T04:00:26.855Z,99829.16
2023-11-30T04:04:32.006Z,99833.31
2023-11-30T04:08:38.080Z,99833.31
2023-11-30T04:12:42.987Z,99838.06
2023-11-30T04:16:50.337Z,99836.81
2023-11-30T04:20:55.197Z,99827.53
2023-11-30T04:24:59.999Z,99830.88
2023-11-30T04:29:04.752Z,99822.00
2023-11-30T04:33:12.662Z,99831.25
2023-11-30T04:37:17.945Z,99832.06
2023-11-30T04:41:24.221Z,99829.59
2023-11-30T04:45:28.968Z,99824.81
2023-11-30T04:49:36.486Z,99825.63
2023-11-30T04:53:41.273Z,99825.22
2023-11-30T04:57:46.009Z,99823.56
2023-11-30T05:01:50.871Z,99815.31
2023-11-30T05:05:58.383Z,99822.94
2023-11-30T05:10:03.200Z,99820.06
2023-11-30T05:14:07.991Z,99817.78
2023-11-30T05:18:12.917Z,99828.53
2023-11-30T05:22:20.372Z,99835.53
2023-11-30T05:26:25.125Z,99833.28
2023-11-30T05:30:30.365Z,99835.34
2023-11-30T05:34:36.841Z,99827.13
2023-11-30T05:38:44.213Z,99821.13
2023-11-30T05:42:49.240Z,99821.56
2023-11-30T05:46:54.404Z,99820.31
2023-11-30T05:50:59.164Z,99818.88
2023-11-30T05:55:07.603Z,99822.00
2023-11-30T05:59:13.463Z,99823.44
2023-11-30T06:03:18.487Z,99828.56
2023-11-30T06:07:24.732Z,99828.56
2023-11-30T06:11:32.070Z,99825.31
2023-11-30T06:15:36.944Z,99826.34
2023-11-30T06:19:42.041Z,99822.00
2023-11-30T06:23:46.776Z,99818.94
2023-11-30T06:27:54.081Z,99836.44
2023-11-30T06:32:03.148Z,99838.94
2023-11-30T06:36:09.168Z,99837.47
2023-11-30T06:40:14.706Z,99840.97
2023-11-30T06:44:22.185Z,99837.88
2023-11-30T06:48:27.971Z,99849.38
2023-11-30T06:52:32.973Z,99840.28
2023-11-30T06:56:37.878Z,99842.75
2023-11-30T07:00:45.944Z,99853.84
2023-11-30T07:04:50.874Z,99850.13
2023-11-30T07:08:55.697Z,99847.03
2023-11-30T07:13:00.474Z,99850.31
2023-11-30T07:17:08.208Z,99841.28
2023-11-30T07:21:17.024Z,99846.63
2023-11-30T07:25:21.831Z,99850.09
2023-11-30T07:29:27.148Z,99847.00
2023-11-30T07:33:34.907Z,99844.97
2023-11-30T07:37:39.704Z,99859.78
2023-11-30T07:41:44.426Z,99856.91
2023-11-30T07:45:50.128Z,99866.63
2023-11-30T07:49:58.083Z,99863.72
2023-11-30T07:54:02.838Z,99862.44
2023-11-30T07:58:07.797Z,99866.16
2023-11-30T08:02:13.280Z,99864.25
2023-11-30T08:06:20.622Z,99870.69
2023-11-30T08:10:27.098Z,99873.75
2023-11-30T08:14:32.156Z,99873.81
2023-11-30T08:18:36.912Z,99874.03
2023-11-30T08:22:44.331Z,99868.47
2023-11-30T08:26:49.076Z,99871.97
2023-11-30T08:30:53.903Z,99871.97
2023-11-30T08:34:58.753Z,99861.91
2023-11-30T08:39:07.362Z,99860.84
2023-11-30T08:43:13.365Z,99853.00
2023-11-30T08:47:18.090Z,99855.84
2023-11-30T08:51:22.852Z,99857.06
2023-11-30T08:55:30.290Z,99846.16
2023-11-30T08:59:34.974Z,99849.09
2023-11-30T09:03:40.894Z,99832.78
2023-11-30T09:07:46.602Z,99835.88
2023-11-30T09:11:53.987Z,99819.81
2023-11-30T09:15:58.747Z,99821.66
2023-11-30T09:20:03.830Z,99818.78
2023-11-30T09:24:09.614Z,99807.25
2023-11-30T09:28:17.289Z,99807.84
2023-11-30T09:32:23.713Z,99813.81
2023-11-30T09:36:28.453Z,99818.34
2023-11-30T09:40:35.159Z,99822.25
2023-11-30T09:44:42.538Z,99813.88
2023-11-30T09:48:47.360Z,99817.19
2023-11-30T09:52:52.093Z,99811.84
2023-11-30T09:56:56.858Z,99808.78
2023-11-30T10:01:05.067Z,99809.25
2023-11-30T10:05:11.246Z,99808.84
2023-11-30T10:09:16.991Z,99810.72
2023-11-30T10:13:21.754Z,99807.00
2023-11-30T10:17:30.357Z,99803.94
2023-11-30T10:21:35.348Z,99813.63
2023-11-30T10:25:41.026Z,99809.09
2023-11-30T10:29:47.733Z,99800.84
2023-11-30T10:33:59.914Z,99812.16
2023-11-30T10:38:07.679Z,99802.91
2023-11-30T10:42:15.687Z,99803.53
2023-11-30T10:46:22.115Z,99802.69
2023-11-30T10:50:33.065Z,99800.03
2023-11-30T10:54:43.023Z,99792.59
2023-11-30T10:58:48.389Z,99796.09
2023-11-30T11:02:53.207Z,99794.66
2023-11-30T11:07:07.388Z,99799.59
2023-11-30T11:11:13.049Z,99798.97
2023-11-30T11:15:17.885Z,99799.19
2023-11-30T11:19:25.834Z,99795.91
2023-11-30T11:23:42.067Z,99791.16
2023-11-30T11:27:46.951Z,99799.19
2023-11-30T11:31:51.968Z,99796.09
2023-11-30T11:35:57.212Z,99801.88
2023-11-30T11:40:04.965Z,99801.88
2023-11-30T11:44:10.543Z,99811.34
2023-11-30T11:48:15.924Z,99802.50
2023-11-30T11:52:24.187Z,99809.09
2023-11-30T11:56:31.580Z,99806.63
2023-11-30T12:00:36.703Z,99803.31
2023-11-30T12:04:41.545Z,99808.44
2023-11-30T12:08:46.281Z,99802.91
2023-11-30T12:12:54.789Z,99800.22
2023-11-30T12:16:59.564Z,99796.50
2023-11-30T12:21:04.415Z,99800.22
2023-11-30T12:25:09.634Z,99806.81
2023-11-30T12:29:17.003Z,99799.59
2023-11-30T12:33:23.023Z,99795.69
2023-11-30T12:37:27.849Z,99790.09
2023-11-30T12:41:32.567Z,99792.34
2023-11-30T12:45:40.376Z,99786.38
2023-11-30T12:49:45.780Z,99790.91
2023-11-30T12:53:52.399Z,99792.97
2023-11-30T12:57:57.290Z,99788.41
2023-11-30T13:02:04.807Z,99791.09
2023-11-30T13:06:11.374Z,99779.13
2023-11-30T13:10:17.087Z,99789.44
2023-11-30T13:14:21.993Z,99782.41
2023-11-30T13:18:31.574Z,99791.47
2023-11-30T13:22:36.470Z,99785.72
2023-11-30T13:26:41.857Z,99791.25
2023-11-30T13:30:46.733Z,99789.00
2023-11-30T13:34:56.020Z,99785.53
2023-11-30T13:39:01.736Z,99788.81
2023-11-30T13:43:06.612Z,99786.13
2023-11-30T13:47:11.647Z,99784.69
2023-11-30T13:51:19.050Z,99784.69
2023-11-30T13:55:23.837Z,99785.75
2023-11-30T13:59:28.606Z,99779.97
2023-11-30T14:03:34.287Z,99785.53
2023-11-30T14:07:41.895Z,99781.19
2023-11-30T14:11:46.652Z,99778.91
2023-11-30T14:15:51.479Z,99775.41
2023-11-30T14:19:56.292Z,99773.38
2023-11-30T14:24:06.221Z,99779.13
2023-11-30T14:28:12.887Z,99786.94
2023-11-30T14:32:20.100Z,99788.00
2023-11-30T14:36:25.145Z,99789.88
2023-11-30T14:40:32.504Z,99787.81
2023-11-30T14:44:37.242Z,99791.94
2023-11-30T14:48:42.005Z,99789.47
2023-11-30T14:52:47.910Z,99793.16
2023-11-30T14:56:55.460Z,99801.84
2023-11-30T15:01:00.332Z,99799.78
2023-11-30T15:05:07.452Z,99811.13
2023-11-30T15:09:12.690Z,99810.75
2023-11-30T15:13:21.623Z,99812.81
2023-11-30T15:17:26.413Z,99812.00
2023-11-30T15:21:31.996Z,99814.84
2023-11-30T15:25:36.781Z,99815.50
2023-11-30T15:29:45.311Z,99811.56
2023-11-30T15:33:50.288Z,99818.78
2023-11-30T15:37:58.119Z,99820.22
2023-11-30T15:42:02.855Z,99817.75
2023-11-30T15:46:11.940Z,99824.34
2023-11-30T15:50:16.810Z,99830.13
2023-11-30T15:54:21.816Z,99834.03
2023-11-30T15:58:27.890Z,99833.81
2023-11-30T16:02:35.472Z,99841.47
2023-11-30T16:06:40.368Z,99837.97
2023-11-30T16:10:45.133Z,99832.59
2023-11-30T16:14:49.908Z,99834.84
2023-11-30T16:18:57.319Z,99835.41
2023-11-30T16:23:04.410Z,99835.59
2023-11-30T16:27:11.610Z,99841.19
2023-11-30T16:31:16.774Z,99845.50
2023-11-30T16:35:24.266Z,99836.84
2023-11-30T16:39:29.133Z,99840.56
2023-11-30T16:43:37.067Z,99833.75
2023-11-30T16:47:42.154Z,99845.06
2023-11-30T16:51:55.334Z,99837.88
2023-11-30T16:56:05.122Z,99834.38
2023-11-30T17:00:11.206Z,99843.66
2023-11-30T17:04:16.087Z,99829.44
2023-11-30T17:08:23.430Z,99830.69
2023-11-30T17:12:28.324Z,99829.63
2023-11-30T17:16:33.091Z,99832.94
2023-11-30T17:20:37.850Z,99841.63
2023-11-30T17:24:45.450Z,99840.78
2023-11-30T17:28:58.540Z,99840.38
2023-11-30T17:33:03.637Z,99845.09
2023-11-30T17:37:14.259Z,99843.25
2023-11-30T17:41:21.954Z,99846.34
2023-11-30T17:45:26.738Z,99853.56
2023-11-30T17:49:31.476Z,99854.81
2023-11-30T17:53:36.251Z,99852.34
2023-11-30T17:57:44.357Z,99858.72
2023-11-30T18:01:49.159Z,99855.44
2023-11-30T18:05:54.095Z,99854.41
2023-11-30T18:09:58.942Z,99855.88
2023-11-30T18:14:06.354Z,99853.78
2023-11-30T18:18:11.205Z,99855.66
2023-11-30T18:22:16.020Z,99856.25
2023-11-30T18:26:21.409Z,99858.69
2023-11-30T18:30:28.761Z,99866.13
2023-11-30T18:34:33.529Z,99866.94
2023-11-30T18:38:44.096Z,99873.75
2023-11-30T18:42:55.377Z,99861.56
2023-11-30T18:47:03.101Z,99862.81
2023-11-30T18:51:08.602Z,99865.91
2023-11-30T18:55:13.688Z,99875.22
2023-11-30T18:59:18.574Z,99875.81
2023-11-30T19:03:26.211Z,99877.69
2023-11-30T19:07:31.567Z,99890.25
2023-11-30T19:11:36.356Z,99889.22
2023-11-30T19:15:43.014Z,99884.88
2023-11-30T19:19:50.454Z,99887.13
2023-11-30T19:23:56.166Z,99890.78
2023-11-30T19:28:06.638Z,99893.69
2023-11-30T19:32:11.421Z,99902.50
2023-11-30T19:36:18.928Z,99898.38
2023-11-30T19:40:23.782Z,99913.81
2023-11-30T19:44:28.533Z,99915.00
2023-11-30T19:48:33.398Z,99907.63
2023-11-30T19:52:41.274Z,99901.44
2023-11-30T19:56:46.451Z,99920.63
2023-11-30T20:00:52.543Z,99922.91
2023-11-30T20:04:57.323Z,99919.84
2023-11-30T20:09:05.222Z,99922.09
2023-11-30T20:13:09.988Z,99931.63
2023-11-30T20:17:15.365Z,99934.69
2023-11-30T20:21:22.601Z,99935.94
2023-11-30T20:25:30.300Z,99942.69
2023-11-30T20:29:35.008Z,99942.91
2023-11-30T20:33:39.764Z,99948.06
2023-11-30T20:37:44.493Z,99948.72
2023-11-30T20:41:51.874Z,99939.66
2023-11-30T20:45:57.436Z,99948.72
2023-11-30T20:50:02.806Z,99953.25
2023-11-30T20:54:10.093Z,99947.06
2023-11-30T20:58:17.725Z,99948.72
2023-11-30T21:02:24.214Z,99949.13
2023-11-30T21:06:29.176Z,99951.78
2023-11-30T21:10:33.974Z,99946.84
2023-11-30T21:14:41.331Z,99950.38
2023-11-30T21:18:47.638Z,99962.53
2023-11-30T21:22:53.878Z,99956.59
2023-11-30T21:26:58.616Z,99957.66
2023-11-30T21:31:06.128Z,99952.69
2023-11-30T21:35:11.769Z,99958.88
2023-11-30T21:39:16.712Z,99963.84
2023-11-30T21:43:21.515Z,99966.53
2023-11-30T21:47:29.656Z,99969.22
2023-11-30T21:51:37.028Z,99971.28
2023-11-30T21:55:42.698Z,99975.59
2023-11-30T21:59:47.405Z,99974.38
2023-11-30T22:03:54.970Z,99981.81
2023-11-30T22:08:00.308Z,99975.41
2023-11-30T22:12:06.709Z,99974.59
2023-11-30T22:16:14.055Z,99975.41
2023-11-30T22:20:22.583Z,99980.56
2023-11-30T22:24:27.424Z,99978.28
2023-11-30T22:28:32.170Z,99985.31
2023-11-30T22:32:37.517Z,99987.78
2023-11-30T22:36:45.796Z,99985.31
2023-11-30T22:40:50.635Z,99992.91
2023-11-30T22:44:55.523Z,99988.19
2023-11-30T22:49:00.307Z,99994.78
2023-11-30T22:53:07.823Z,100007.94
2023-11-30T22:57:12.813Z,100000.34
2023-11-30T23:01:18.369Z,100001.53
2023-11-30T23:05:23.533Z,100001.91
2023-11-30T23:09:31.090Z,100000.03
2023-11-30T23:13:35.905Z,100009.28
2023-11-30T23:17:40.732Z,100019.38
2023-11-30T23:21:45.655Z,100016.28
2023-11-30T23:25:53.384Z,100024.16
2023-11-30T23:29:58.197Z,100018.19
2023-11-30T23:34:03.107Z,100020.88
2023-11-30T23:38:07.945Z,100027.47
2023-11-30T23:42:15.686Z,100015.56
2023-11-30T23:46:20.484Z,100018.44
2023-11-30T23:50:26.069Z,100024.66
2023-11-30T23:54:32.120Z,100026.31
2023-11-30T23:58:39.432Z,100025.88
